Time;durP1;ratioP1;P1;durP2;ratioP2;P2;SDS_P1;SDS_P2;PMS_P1;PMS_P2;Temp;Humidity;BMP_temperature;BMP_pressure;BME280_temperature;BME280_humidity;BME280_pressure;Samples;Min_cycle;Max_cycle;Signal;HPM_P1;HPM_P2
2021/09/08 00:00:59;;;;;;;27.70;13.60;;;;;;;12.79;73.77;101063.27;112584;1202;24170;-59
2021/09/08 00:03:27;;;;;;;25.70;12.10;;;;;;;12.77;73.99;101061.79;112778;1203;23670;-58
2021/09/08 00:05:55;;;;;;;25.60;12.50;;;;;;;12.74;74.17;101058.82;112568;1203;22452;-59
2021/09/08 00:08:24;;;;;;;24.10;11.60;;;;;;;12.72;73.93;101058.48;112567;1203;22494;-56
2021/09/08 00:10:53;;;;;;;26.10;12.20;;;;;;;12.72;74.10;101053.54;112628;1203;22454;-58
2021/09/08 00:13:21;;;;;;;25.00;11.70;;;;;;;12.73;74.34;101055.95;112844;1203;22826;-58
2021/09/08 00:15:49;;;;;;;26.90;11.00;;;;;;;12.74;74.66;101050.27;112522;1203;26324;-58
2021/09/08 00:18:20;;;;;;;24.80;10.40;;;;;;;12.74;74.71;101050.08;112544;1203;22657;-58
2021/09/08 00:20:49;;;;;;;23.90;10.50;;;;;;;12.73;74.86;101048.05;112417;1202;22392;-60
2021/09/08 00:23:27;;;;;;;;;;;;;;;;;;;;;
2021/09/08 00:25:56;;;;;;;23.80;11.70;;;;;;;12.66;75.52;101052.72;112429;1203;22379;-57
2021/09/08 00:28:24;;;;;;;25.30;11.00;;;;;;;12.62;75.53;101055.33;112638;1203;22423;-61
2021/09/08 00:30:52;;;;;;;20.60;9.80;;;;;;;12.58;75.39;101055.80;112561;1203;22851;-59
2021/09/08 00:33:20;;;;;;;24.20;10.20;;;;;;;12.55;75.36;101053.27;112672;1203;23246;-60
2021/09/08 00:35:49;;;;;;;21.30;9.90;;;;;;;12.49;75.34;101055.29;112716;1203;22554;-58
2021/09/08 00:38:18;;;;;;;20.60;9.90;;;;;;;12.44;75.15;101060.59;112565;1203;24079;-58
2021/09/08 00:40:46;;;;;;;20.90;9.50;;;;;;;12.37;75.03;101055.80;112535;1203;22439;-59
2021/09/08 00:43:14;;;;;;;21.00;8.80;;;;;;;12.32;75.01;101055.50;112590;1203;22433;-59
2021/09/08 00:45:49;;;;;;;24.00;10.20;;;;;;;12.28;75.02;101056.88;112619;1203;22555;-58
2021/09/08 00:48:17;;;;;;;20.80;9.00;;;;;;;12.24;75.05;101060.97;112642;1203;22462;-58
2021/09/08 00:50:46;;;;;;;20.60;9.00;;;;;;;12.20;74.94;101062.29;112442;1203;24131;-59
2021/09/08 00:53:17;;;;;;;20.50;8.70;;;;;;;12.16;75.07;101061.15;112526;1203;24143;-57
2021/09/08 00:55:48;;;;;;;20.10;8.00;;;;;;;12.14;75.08;101057.42;112667;1203;25383;-59
2021/09/08 00:58:17;;;;;;;20.20;8.50;;;;;;;12.12;74.91;101056.79;112526;1203;22468;-58
2021/09/08 01:00:48;;;;;;;20.30;9.20;;;;;;;12.09;75.12;101056.20;112637;1202;22523;-60
2021/09/08 01:03:16;;;;;;;20.60;9.00;;;;;;;12.06;74.98;101059.23;112577;1203;25055;-59
2021/09/08 01:05:47;;;;;;;25.80;9.70;;;;;;;12.03;75.24;101060.58;112585;1203;25098;-60
2021/09/08 01:08:16;;;;;;;20.60;8.30;;;;;;;12.01;75.26;101065.00;112760;1203;22620;-56
2021/09/08 01:10:46;;;;;;;17.40;7.50;;;;;;;11.98;75.15;101064.26;112703;1203;22543;-58
2021/09/08 01:13:14;;;;;;;20.20;8.40;;;;;;;11.94;75.12;101063.45;114223;1203;22421;-60
2021/09/08 01:15:58;;;;;;;21.30;9.30;;;;;;;11.91;75.07;101068.25;113551;1203;22507;-58
2021/09/08 01:18:28;;;;;;;19.10;7.80;;;;;;;11.87;75.30;101065.80;112586;1203;22453;-57
2021/09/08 01:20:56;;;;;;;18.40;8.00;;;;;;;11.84;75.22;101066.42;112680;1203;22655;-59
2021/09/08 01:23:24;;;;;;;19.40;7.90;;;;;;;11.82;75.29;101069.78;112613;1203;24069;-56
2021/09/08 01:25:52;;;;;;;17.10;7.60;;;;;;;11.80;75.28;101065.38;112729;1203;22450;-58
2021/09/08 01:28:21;;;;;;;19.60;8.20;;;;;;;11.78;75.49;101066.27;112673;1203;25220;-58
2021/09/08 01:30:55;;;;;;;19.00;7.70;;;;;;;11.76;75.52;101063.77;112795;1203;25389;-60
2021/09/08 01:33:23;;;;;;;18.10;7.50;;;;;;;11.75;75.33;101060.73;112687;1203;24036;-57
2021/09/08 01:35:52;;;;;;;18.30;7.90;;;;;;;11.72;75.33;101059.91;112799;1203;22502;-56
2021/09/08 01:38:20;;;;;;;17.50;7.80;;;;;;;11.69;75.54;101054.37;112601;1203;22397;-59
2021/09/08 01:40:49;;;;;;;16.80;7.20;;;;;;;11.67;75.48;101048.06;112648;1203;22430;-58
2021/09/08 01:43:22;;;;;;;17.80;7.70;;;;;;;11.65;75.46;101048.60;112550;1203;22454;-57
2021/09/08 01:45:51;;;;;;;17.10;7.20;;;;;;;11.63;75.73;101045.09;112551;1203;23797;-58
2021/09/08 01:48:20;;;;;;;16.50;6.90;;;;;;;11.63;75.77;101046.05;112557;1203;24020;-58
2021/09/08 01:50:49;;;;;;;17.00;7.20;;;;;;;11.62;75.81;101046.89;112588;1203;22474;-60
2021/09/08 01:53:17;;;;;;;17.20;7.10;;;;;;;11.62;75.94;101051.95;112559;1203;25264;-58
2021/09/08 01:55:47;;;;;;;16.90;7.40;;;;;;;11.61;75.96;101054.07;112521;1203;22731;-58
2021/09/08 01:58:16;;;;;;;22.40;8.00;;;;;;;11.61;75.81;101049.30;112655;1203;22456;-59
2021/09/08 02:00:45;;;;;;;;;;;;;;;11.60;75.87;101050.68;112754;1202;24047;-59
2021/09/08 02:03:13;;;;;;;17.10;7.40;;;;;;;11.56;76.02;101051.95;112615;1203;25206;-57
2021/09/08 02:05:41;;;;;;;16.70;7.00;;;;;;;11.53;76.07;101054.16;112534;1202;22439;-57
2021/09/08 02:08:30;;;;;;;16.20;6.60;;;;;;;11.51;76.03;101052.52;112561;1203;22456;-60
2021/09/08 02:10:57;;;;;;;17.60;6.70;;;;;;;11.48;75.99;101051.84;112483;1203;25739;-58
2021/09/08 02:13:31;;;;;;;14.60;5.80;;;;;;;11.46;75.98;101046.16;112628;1203;22455;-58
2021/09/08 02:15:59;;;;;;;19.10;6.90;;;;;;;11.43;76.18;101047.48;112750;1203;23676;-58
2021/09/08 02:18:27;;;;;;;19.60;7.60;;;;;;;11.41;76.19;101046.46;112660;1203;22763;-59
2021/09/08 02:20:55;;;;;;;21.80;7.30;;;;;;;11.38;76.27;101045.61;112495;1203;24928;-58
2021/09/08 02:23:26;;;;;;;16.70;6.90;;;;;;;11.36;76.24;101041.23;112563;1203;25492;-59
2021/09/08 02:25:54;;;;;;;19.30;7.90;;;;;;;11.34;76.31;101041.73;112522;1203;22434;-58
2021/09/08 02:28:22;;;;;;;18.50;7.30;;;;;;;11.32;76.41;101042.23;112537;1203;22436;-59
2021/09/08 02:30:50;;;;;;;18.00;6.90;;;;;;;11.30;76.38;101041.85;112671;1203;22892;-58
2021/09/08 02:33:19;;;;;;;17.40;7.20;;;;;;;11.26;76.38;101042.63;112500;1203;22462;-60
2021/09/08 02:35:49;;;;;;;16.30;7.60;;;;;;;11.23;76.48;101039.73;112497;1203;22938;-60
2021/09/08 02:38:18;;;;;;;16.90;7.80;;;;;;;11.20;76.41;101040.72;112540;1203;25749;-58
2021/09/08 02:40:47;;;;;;;22.60;8.10;;;;;;;11.19;76.29;101045.10;112545;1203;22438;-58
2021/09/08 02:43:16;;;;;;;22.10;7.90;;;;;;;11.17;76.56;101045.84;112583;1203;22602;-59
2021/09/08 02:45:44;;;;;;;17.80;7.60;;;;;;;11.15;76.43;101047.42;112732;1203;22427;-59
2021/09/08 02:48:16;;;;;;;21.10;8.40;;;;;;;11.12;76.60;101043.98;112574;1203;22637;-59
2021/09/08 02:50:47;;;;;;;19.70;7.70;;;;;;;11.08;76.53;101039.26;112779;1203;22557;-58
2021/09/08 02:53:16;;;;;;;16.30;7.50;;;;;;;11.05;76.71;101040.17;112803;1203;22689;-58
2021/09/08 02:55:44;;;;;;;20.00;8.20;;;;;;;11.03;76.79;101042.92;112636;1203;23682;-60
2021/09/08 02:58:12;;;;;;;18.90;7.80;;;;;;;11.00;76.71;101050.23;112560;1203;22649;-57
2021/09/08 03:00:40;;;;;;;17.30;7.80;;;;;;;10.98;76.70;101052.45;112679;1202;22486;-60
2021/09/08 03:03:08;;;;;;;16.60;7.80;;;;;;;10.96;76.78;101053.57;112830;1202;22462;-60
2021/09/08 03:05:39;;;;;;;18.30;7.40;;;;;;;10.97;76.75;101052.35;112644;1203;26447;-58
2021/09/08 03:08:08;;;;;;;19.30;8.70;;;;;;;10.94;76.83;101053.69;112643;1203;22474;-56
2021/09/08 03:10:37;;;;;;;22.20;10.20;;;;;;;10.91;76.80;101047.25;112560;1203;24022;-58
2021/09/08 03:13:05;;;;;;;20.50;9.60;;;;;;;10.89;76.82;101047.66;112586;1203;22474;-58
2021/09/08 03:15:35;;;;;;;22.60;9.00;;;;;;;10.85;76.71;101048.20;112821;1203;22440;-60
2021/09/08 03:18:03;;;;;;;19.80;9.00;;;;;;;10.81;76.69;101047.59;112634;1203;25097;-56
2021/09/08 03:20:32;;;;;;;19.70;9.00;;;;;;;10.77;76.57;101040.73;112627;1203;22455;-58
2021/09/08 03:23:01;;;;;;;20.60;9.10;;;;;;;10.73;76.63;101042.17;112830;1203;22691;-58
2021/09/08 03:25:31;;;;;;;18.80;8.70;;;;;;;10.70;76.63;101039.09;112688;1203;22454;-56
2021/09/08 03:28:00;;;;;;;20.70;8.30;;;;;;;10.68;76.86;101037.41;112807;1203;25082;-59
2021/09/08 03:30:28;;;;;;;23.60;9.80;;;;;;;10.67;76.88;101038.11;112684;1203;24069;-56
2021/09/08 03:32:57;;;;;;;23.40;9.70;;;;;;;10.66;76.94;101038.23;112653;1203;22467;-59
2021/09/08 03:35:25;;;;;;;22.50;9.90;;;;;;;10.66;77.02;101040.08;112713;1203;25075;-58
2021/09/08 03:37:54;;;;;;;23.70;9.70;;;;;;;10.65;76.99;101043.36;112784;1202;22733;-60
2021/09/08 03:40:22;;;;;;;21.20;10.00;;;;;;;10.65;77.21;101040.82;112854;1203;22536;-57
2021/09/08 03:42:50;;;;;;;21.40;10.40;;;;;;;10.64;77.32;101041.80;112950;1203;24083;-58
2021/09/08 03:45:19;;;;;;;25.10;11.00;;;;;;;10.64;77.29;101039.35;112553;1203;22452;-58
2021/09/08 03:47:48;;;;;;;21.40;9.70;;;;;;;10.63;77.24;101040.19;112472;1202;23177;-58
2021/09/08 03:50:16;;;;;;;22.40;9.60;;;;;;;10.62;77.18;101043.71;112543;1203;22447;-58
2021/09/08 03:52:44;;;;;;;22.10;9.70;;;;;;;10.62;77.03;101044.87;112631;1203;25219;-56
2021/09/08 03:55:15;;;;;;;23.10;9.40;;;;;;;10.59;77.12;101040.23;112576;1203;24069;-58
2021/09/08 03:57:45;;;;;;;21.20;10.20;;;;;;;10.58;77.32;101040.52;112524;1203;22451;-59
2021/09/08 04:00:16;;;;;;;22.00;9.90;;;;;;;10.56;77.43;101037.72;112585;1203;22466;-59
2021/09/08 04:02:44;;;;;;;24.60;11.10;;;;;;;10.56;77.54;101037.59;112639;1203;22452;-58
2021/09/08 04:05:13;;;;;;;24.60;10.50;;;;;;;10.56;77.64;101039.98;112630;1203;22449;-58
2021/09/08 04:07:41;;;;;;;21.70;9.60;;;;;;;10.55;77.76;101042.85;112499;1203;22494;-57
2021/09/08 04:10:11;;;;;;;25.00;11.80;;;;;;;10.56;77.81;101034.61;112586;1203;22582;-59
2021/09/08 04:12:39;;;;;;;28.40;13.50;;;;;;;10.57;77.81;101032.83;112669;1204;22466;-59
2021/09/08 04:15:10;;;;;;;30.10;14.50;;;;;;;10.58;77.97;101032.39;112484;1203;23102;-61
2021/09/08 04:17:38;;;;;;;30.70;14.90;;;;;;;10.60;78.04;101031.52;113455;1203;22668;-60
2021/09/08 04:20:09;;;;;;;31.30;15.40;;;;;;;10.62;78.16;101030.65;112628;1203;22414;-58
2021/09/08 04:22:38;;;;;;;34.40;16.10;;;;;;;10.63;78.19;101029.83;112320;1203;24272;-60
2021/09/08 04:25:08;;;;;;;32.20;16.00;;;;;;;10.64;78.30;101034.81;112341;1203;22628;-58
2021/09/08 04:27:37;;;;;;;28.50;14.90;;;;;;;10.63;78.20;101032.27;112368;1203;22448;-59
2021/09/08 04:30:07;;;;;;;32.60;15.20;;;;;;;10.63;78.25;101035.94;112282;1203;24278;-56
2021/09/08 04:32:38;;;;;;;34.30;14.40;;;;;;;10.64;78.49;101039.02;112575;1204;23102;-58
2021/09/08 04:35:09;;;;;;;33.20;14.70;;;;;;;10.66;78.54;101032.34;112520;1204;25362;-59
2021/09/08 04:37:39;;;;;;;29.20;13.00;;;;;;;10.66;78.49;101031.67;112748;1203;24069;-59
2021/09/08 04:40:10;;;;;;;32.50;14.70;;;;;;;10.67;78.76;101030.69;112777;1204;22464;-58
2021/09/08 04:42:42;;;;;;;28.90;13.00;;;;;;;10.68;78.70;101032.84;112711;1203;22557;-59
2021/09/08 04:45:12;;;;;;;29.80;14.00;;;;;;;10.69;78.85;101030.11;112770;1204;22458;-58
2021/09/08 04:47:40;;;;;;;30.60;14.60;;;;;;;10.72;79.03;101029.61;112660;1204;25205;-58
2021/09/08 04:50:10;;;;;;;32.00;15.60;;;;;;;10.74;79.12;101026.73;112380;1204;22450;-57
2021/09/08 04:52:38;;;;;;;37.00;17.60;;;;;;;10.78;79.23;101028.32;112457;1203;23802;-58
2021/09/08 04:55:11;;;;;;;33.20;15.50;;;;;;;10.81;79.40;101027.30;112443;1203;22427;-60
2021/09/08 04:57:39;;;;;;;32.30;16.60;;;;;;;10.85;79.51;101030.66;112436;1204;22593;-58
2021/09/08 05:00:11;;;;;;;34.80;17.60;;;;;;;10.88;79.54;101035.34;112527;1204;22397;-59
2021/09/08 05:02:39;;;;;;;29.90;15.30;;;;;;;10.89;79.83;101032.39;112603;1204;25220;-57
2021/09/08 05:05:09;;;;;;;36.00;16.70;;;;;;;10.91;79.83;101035.11;112436;1203;22735;-59
2021/09/08 05:07:37;;;;;;;34.10;16.50;;;;;;;10.93;79.97;101034.96;112778;1203;22516;-59
2021/09/08 05:10:08;;;;;;;37.30;18.60;;;;;;;10.95;79.97;101037.02;112552;1203;24138;-59
2021/09/08 05:12:36;;;;;;;32.90;16.00;;;;;;;10.97;80.16;101029.52;112501;1203;22624;-59
2021/09/08 05:15:06;;;;;;;34.90;17.50;;;;;;;11.00;80.21;101030.75;114917;1204;22464;-59
2021/09/08 05:17:34;;;;;;;34.90;16.80;;;;;;;11.03;80.27;101034.85;112185;1204;22485;-63
2021/09/08 05:20:05;;;;;;;33.70;16.70;;;;;;;11.06;80.45;101035.27;111892;1204;22469;-60
2021/09/08 05:22:33;;;;;;;31.50;15.00;;;;;;;11.11;80.42;101034.45;112860;1203;22419;-59
2021/09/08 05:25:05;;;;;;;39.80;17.70;;;;;;;11.15;80.35;101037.92;112473;1203;22454;-58
2021/09/08 05:27:35;;;;;;;37.80;17.80;;;;;;;11.21;80.74;101042.00;112733;1204;22467;-63
2021/09/08 05:30:03;;;;;;;35.20;18.10;;;;;;;11.26;80.87;101039.55;112622;1202;22390;-58
2021/09/08 05:32:32;;;;;;;39.50;19.20;;;;;;;11.30;80.73;101042.62;112694;1204;22400;-60
2021/09/08 05:35:00;;;;;;;39.20;19.90;;;;;;;11.34;80.92;101040.43;112472;1203;22459;-58
2021/09/08 05:37:28;;;;;;;40.00;20.30;;;;;;;11.41;81.21;101042.57;112438;1204;25094;-57
2021/09/08 05:39:56;;;;;;;42.00;20.40;;;;;;;11.47;81.41;101045.42;112551;1204;22452;-58
2021/09/08 05:42:25;;;;;;;41.00;19.60;;;;;;;11.52;81.43;101049.02;112476;1203;22446;-58
2021/09/08 05:44:53;;;;;;;39.40;19.80;;;;;;;11.58;81.48;101048.77;112319;1204;23747;-56
2021/09/08 05:47:21;;;;;;;42.10;21.50;;;;;;;11.64;81.55;101049.70;112522;1203;22722;-62
2021/09/08 05:49:50;;;;;;;37.80;22.00;;;;;;;11.70;81.50;101051.20;112739;1203;23826;-57
2021/09/08 05:52:21;;;;;;;45.40;22.20;;;;;;;11.77;81.57;101048.59;112454;1204;22733;-58
2021/09/08 05:54:48;;;;;;;;;;;;;;;11.84;81.70;101048.42;112602;1203;22415;-59
2021/09/08 05:57:19;;;;;;;44.00;23.30;;;;;;;11.90;82.24;101049.51;112635;1203;25219;-58
2021/09/08 05:59:49;;;;;;;49.30;23.40;;;;;;;11.97;82.32;101051.98;112727;1203;25683;-57
2021/09/08 06:02:18;;;;;;;45.80;25.20;;;;;;;12.04;82.46;101049.56;112585;1204;22443;-59
2021/09/08 06:04:49;;;;;;;50.70;29.70;;;;;;;12.12;83.09;101051.98;112732;1203;22513;-58
2021/09/08 06:07:18;;;;;;;51.50;28.30;;;;;;;12.21;83.22;101049.90;112764;1203;24208;-58
2021/09/08 06:09:48;;;;;;;54.50;30.90;;;;;;;12.29;83.48;101049.06;112584;1204;25212;-58
2021/09/08 06:12:16;;;;;;;50.60;28.20;;;;;;;12.38;83.27;101046.45;112728;1204;22467;-59
2021/09/08 06:14:45;;;;;;;49.20;27.70;;;;;;;12.46;83.49;101048.29;112805;1203;22499;-58
2021/09/08 06:17:13;;;;;;;48.70;25.90;;;;;;;12.56;83.71;101050.09;112650;1203;24227;-57
2021/09/08 06:19:42;;;;;;;55.30;29.00;;;;;;;12.65;83.77;101051.33;112702;1203;25938;-59
2021/09/08 06:22:10;;;;;;;53.10;31.10;;;;;;;12.74;84.23;101044.05;112449;1204;22538;-59
2021/09/08 06:24:41;;;;;;;52.60;28.10;;;;;;;12.84;84.19;101038.77;112630;1204;22450;-58
2021/09/08 06:27:09;;;;;;;52.20;27.70;;;;;;;12.93;84.11;101038.27;112465;1204;22563;-58
2021/09/08 06:29:37;;;;;;;52.30;28.80;;;;;;;13.03;84.78;101037.22;112569;1204;25098;-59
2021/09/08 06:32:07;;;;;;;51.70;30.10;;;;;;;13.14;84.86;101040.12;112166;1205;26379;-58
2021/09/08 06:34:56;;;;;;;46.50;28.30;;;;;;;13.22;84.43;101034.33;112014;1203;25224;-58
2021/09/08 06:37:24;;;;;;;50.70;28.40;;;;;;;13.31;84.86;101039.61;111667;1204;25371;-59
2021/09/08 06:39:52;;;;;;;50.30;27.80;;;;;;;13.40;84.65;101039.14;111799;1204;24079;-59
2021/09/08 06:42:20;;;;;;;49.50;27.00;;;;;;;13.48;84.68;101041.70;111842;1204;22364;-60
2021/09/08 06:44:52;;;;;;;49.70;27.60;;;;;;;13.56;84.81;101039.88;112011;1203;23895;-60
2021/09/08 06:47:23;;;;;;;48.10;25.70;;;;;;;13.65;84.75;101040.95;112163;1203;22462;-59
2021/09/08 06:49:52;;;;;;;45.30;26.30;;;;;;;13.74;84.72;101045.83;112094;1204;22453;-59
2021/09/08 06:52:21;;;;;;;55.60;27.40;;;;;;;13.82;84.73;101044.08;112198;1204;22494;-58
2021/09/08 06:54:50;;;;;;;45.50;25.20;;;;;;;13.90;84.86;101045.56;112203;1205;22453;-59
2021/09/08 06:57:19;;;;;;;48.20;26.60;;;;;;;13.97;84.93;101040.29;112046;1203;24069;-59
2021/09/08 06:59:47;;;;;;;48.30;26.60;;;;;;;14.07;85.20;101041.88;111934;1203;22924;-59
2021/09/08 07:02:15;;;;;;;49.50;24.70;;;;;;;14.17;85.19;101039.20;111785;1203;26363;-59
2021/09/08 07:04:43;;;;;;;45.60;24.60;;;;;;;14.26;85.05;101036.45;111934;1204;24230;-59
2021/09/08 07:07:12;;;;;;;41.80;23.30;;;;;;;14.36;85.15;101038.08;112043;1204;22453;-59
2021/09/08 07:09:41;;;;;;;43.20;23.10;;;;;;;14.45;85.23;101034.02;111956;1204;22455;-59
2021/09/08 07:12:10;;;;;;;44.90;25.40;;;;;;;14.56;85.25;101034.56;111863;1204;22561;-59
2021/09/08 07:14:39;;;;;;;39.50;21.30;;;;;;;14.67;85.27;101034.97;112118;1204;24714;-58
2021/09/08 07:17:07;;;;;;;39.00;19.90;;;;;;;14.78;85.14;101034.48;111793;1203;24196;-59
2021/09/08 07:19:35;;;;;;;37.50;21.00;;;;;;;14.93;85.22;101041.02;111708;1204;26186;-59
2021/09/08 07:22:04;;;;;;;38.60;21.10;;;;;;;15.04;84.90;101039.75;111936;1206;22447;-61
2021/09/08 07:24:32;;;;;;;36.40;20.20;;;;;;;15.16;84.87;101040.22;112173;1203;22453;-57
2021/09/08 07:27:00;;;;;;;37.40;20.70;;;;;;;15.25;84.71;101040.80;112033;1203;22636;-58
2021/09/08 07:29:29;;;;;;;35.70;19.40;;;;;;;15.36;84.88;101041.40;111734;1204;22561;-61
2021/09/08 07:31:58;;;;;;;38.40;18.90;;;;;;;15.47;84.56;101042.83;111808;1204;22562;-61
2021/09/08 07:34:47;;;;;;;39.80;18.50;;;;;;;15.56;84.31;101039.36;111689;1204;22460;-62
2021/09/08 07:37:16;;;;;;;36.10;18.70;;;;;;;15.68;84.12;101038.07;111663;1204;24329;-59
2021/09/08 07:39:45;;;;;;;35.00;18.50;;;;;;;15.77;84.02;101044.66;111668;1204;23231;-61
2021/09/08 07:42:13;;;;;;;35.10;17.60;;;;;;;15.89;84.19;101047.81;111716;1203;22745;-59
2021/09/08 07:44:43;;;;;;;34.60;17.80;;;;;;;16.03;83.88;101051.23;111731;1203;22545;-60
2021/09/08 07:47:11;;;;;;;35.00;16.40;;;;;;;16.14;83.63;101044.25;111922;1203;25100;-58
2021/09/08 07:49:49;;;;;;;35.00;17.00;;;;;;;16.23;83.36;101047.02;111667;1203;22503;-59
2021/09/08 07:52:17;;;;;;;34.90;17.50;;;;;;;16.32;82.94;101051.23;111726;1203;25224;-59
2021/09/08 07:54:45;;;;;;;30.30;16.70;;;;;;;16.40;82.96;101051.70;111646;1205;22447;-59
2021/09/08 07:57:13;;;;;;;35.80;16.80;;;;;;;16.50;82.81;101049.45;111694;1205;22551;-59
2021/09/08 07:59:41;;;;;;;30.00;14.90;;;;;;;16.56;82.42;101047.77;111809;1204;22567;-58
2021/09/08 08:02:10;;;;;;;29.30;15.20;;;;;;;16.64;82.24;101046.80;111681;1204;22453;-58
2021/09/08 08:04:39;;;;;;;25.90;14.00;;;;;;;16.71;81.99;101046.33;111979;1204;24103;-59
2021/09/08 08:07:07;;;;;;;32.30;15.70;;;;;;;16.79;81.94;101048.34;112765;1205;22551;-56
2021/09/08 08:09:35;;;;;;;31.70;15.20;;;;;;;16.87;81.51;101051.36;112680;1205;22457;-59
2021/09/08 08:12:07;;;;;;;30.40;14.80;;;;;;;16.97;81.57;101052.80;112572;1206;22440;-59
2021/09/08 08:14:36;;;;;;;26.90;14.00;;;;;;;17.08;81.52;101052.20;112660;1208;22448;-61
2021/09/08 08:17:05;;;;;;;27.60;14.30;;;;;;;17.22;81.37;101052.27;112738;1204;22899;-61
2021/09/08 08:19:33;;;;;;;25.00;12.30;;;;;;;17.36;81.10;101054.86;112775;1205;22445;-59
2021/09/08 08:22:01;;;;;;;25.10;13.00;;;;;;;17.47;81.10;101050.86;112637;1204;22558;-59
2021/09/08 08:24:30;;;;;;;26.50;14.30;;;;;;;17.61;81.05;101049.89;112478;1205;22485;-59
2021/09/08 08:27:00;;;;;;;29.00;12.50;;;;;;;17.74;80.62;101049.23;112729;1205;22376;-59
2021/09/08 08:29:29;;;;;;;25.30;12.50;;;;;;;17.85;80.25;101052.13;112767;1203;25776;-59
2021/09/08 08:31:58;;;;;;;28.70;13.60;;;;;;;17.94;79.69;101051.84;112722;1204;22452;-59
2021/09/08 08:34:26;;;;;;;27.60;14.00;;;;;;;18.02;79.30;101045.59;112753;1204;23906;-58
2021/09/08 08:36:54;;;;;;;28.00;14.00;;;;;;;18.12;78.93;101044.98;112603;1203;22496;-60
2021/09/08 08:39:23;;;;;;;28.50;13.00;;;;;;;18.19;78.71;101041.27;112557;1199;22737;-60
2021/09/08 08:41:51;;;;;;;27.00;13.30;;;;;;;18.26;78.52;101040.21;112569;1206;24138;-60
2021/09/08 08:44:26;;;;;;;32.80;14.10;;;;;;;18.34;78.34;101038.87;112703;1207;22878;-60
2021/09/08 08:46:55;;;;;;;23.80;12.90;;;;;;;18.42;77.95;101037.60;112567;1208;24116;-59
2021/09/08 08:49:24;;;;;;;23.30;12.20;;;;;;;18.51;78.06;101041.05;112603;1205;25713;-60
2021/09/08 08:51:55;;;;;;;27.10;13.30;;;;;;;18.59;77.72;101038.95;112677;1206;24150;-59
2021/09/08 08:54:24;;;;;;;25.30;11.90;;;;;;;18.66;77.44;101036.92;112578;1204;25753;-67
2021/09/08 08:57:02;;;;;;;;;;;;;;;;;;;;;
2021/09/08 08:59:35;;;;;;;24.50;12.10;;;;;;;18.90;77.17;101032.61;112221;1210;22436;-61
2021/09/08 09:02:19;;;;;;;25.70;12.00;;;;;;;18.99;76.95;101031.30;112600;1204;23553;-60
2021/09/08 09:04:48;;;;;;;25.00;11.60;;;;;;;19.12;76.67;101032.81;112669;1205;25751;-61
2021/09/08 09:07:25;;;;;;;23.50;11.40;;;;;;;19.22;76.29;101033.85;112693;1203;22648;-61
2021/09/08 09:09:56;;;;;;;27.70;11.70;;;;;;;19.33;75.82;101036.05;112685;1204;24081;-61
2021/09/08 09:12:30;;;;;;;22.20;10.60;;;;;;;19.39;75.19;101035.20;112566;1204;22464;-60
2021/09/08 09:14:59;;;;;;;27.20;11.00;;;;;;;19.45;74.78;101036.68;112521;1203;22800;-60
2021/09/08 09:17:31;;;;;;;25.00;10.50;;;;;;;19.51;74.62;101036.96;112669;1206;22455;-60
2021/09/08 09:20:06;;;;;;;21.60;9.30;;;;;;;19.56;74.25;101032.45;112713;1204;22404;-59
2021/09/08 09:22:41;;;;;;;23.50;9.70;;;;;;;19.62;74.26;101032.98;112625;1204;22477;-62
2021/09/08 09:25:12;;;;;;;22.30;11.00;;;;;;;19.69;74.04;101031.36;112589;1206;22590;-60
2021/09/08 09:27:45;;;;;;;19.00;8.50;;;;;;;19.76;73.79;101029.98;112570;1206;22559;-61
2021/09/08 09:30:18;;;;;;;21.60;9.10;;;;;;;19.83;73.06;101027.71;112536;1204;23057;-62
2021/09/08 09:32:49;;;;;;;20.20;8.60;;;;;;;19.91;72.22;101021.06;112498;1206;23612;-60
2021/09/08 09:35:21;;;;;;;16.10;6.40;;;;;;;19.97;71.59;101018.81;112644;1206;22450;-61
2021/09/08 09:37:53;;;;;;;17.60;8.40;;;;;;;20.03;71.19;101016.20;112734;1209;24173;-60
2021/09/08 09:40:25;;;;;;;17.80;7.20;;;;;;;20.13;71.02;101017.35;112558;1209;26405;-59
2021/09/08 09:43:14;;;;;;;15.70;6.50;;;;;;;20.23;70.35;101013.59;112531;1205;22453;-58
2021/09/08 09:45:43;;;;;;;19.30;8.00;;;;;;;20.29;69.78;101010.09;112963;1205;22436;-59
2021/09/08 09:48:11;;;;;;;18.70;7.70;;;;;;;20.37;69.87;101008.63;112667;1204;22410;-61
2021/09/08 09:50:46;;;;;;;22.60;8.20;;;;;;;20.51;69.83;101006.23;112420;1205;23118;-60
2021/09/08 09:53:18;;;;;;;19.30;7.40;;;;;;;20.58;69.37;101003.58;112545;1206;25081;-60
2021/09/08 09:55:46;;;;;;;16.40;7.10;;;;;;;20.64;68.60;100999.92;112512;1204;22466;-58
2021/09/08 09:58:16;;;;;;;19.50;6.70;;;;;;;20.70;68.12;101001.48;112433;1203;25216;-58
2021/09/08 10:00:46;;;;;;;14.30;5.40;;;;;;;20.79;67.54;101001.05;112640;1205;25252;-59
2021/09/08 10:03:14;;;;;;;17.30;7.20;;;;;;;20.88;66.58;100991.86;112593;1204;25372;-59
2021/09/08 10:05:42;;;;;;;17.10;7.10;;;;;;;20.99;66.78;100985.87;112587;1204;22454;-59
2021/09/08 10:08:12;;;;;;;18.70;6.80;;;;;;;21.09;66.69;100981.90;112583;1205;24666;-59
2021/09/08 10:10:44;;;;;;;15.90;6.10;;;;;;;21.19;66.23;100982.29;112593;1205;22448;-60
2021/09/08 10:13:17;;;;;;;15.80;5.30;;;;;;;21.29;65.33;100982.67;112610;1204;24040;-61
2021/09/08 10:15:48;;;;;;;18.40;6.30;;;;;;;21.31;64.30;100980.79;112431;1205;22560;-60
2021/09/08 10:18:22;;;;;;;14.40;6.30;;;;;;;21.33;64.21;100976.44;112239;1206;25299;-61
2021/09/08 10:20:59;;;;;;;19.70;5.80;;;;;;;21.36;63.59;100974.28;112174;1205;23717;-61
2021/09/08 10:23:27;;;;;;;18.30;5.90;;;;;;;21.42;63.21;100972.13;112376;1205;26238;-61
2021/09/08 10:25:58;;;;;;;20.80;5.80;;;;;;;21.53;63.30;100974.35;112152;1204;22462;-61
2021/09/08 10:28:30;;;;;;;15.30;5.10;;;;;;;21.62;62.87;100973.29;112452;1205;22610;-61
2021/09/08 10:31:00;;;;;;;17.60;6.20;;;;;;;21.68;62.43;100969.73;113561;1204;24271;-60
2021/09/08 10:33:29;;;;;;;14.40;5.50;;;;;;;21.71;62.25;100965.51;113410;1204;25354;-61
2021/09/08 10:35:58;;;;;;;16.50;5.40;;;;;;;21.74;62.26;100962.87;112447;1204;22450;-60
2021/09/08 10:38:30;;;;;;;14.80;6.20;;;;;;;21.82;61.86;100959.98;112453;1205;22445;-60
2021/09/08 10:41:02;;;;;;;16.00;6.40;;;;;;;21.90;61.90;100959.77;112416;1205;22452;-61
2021/09/08 10:43:33;;;;;;;13.70;5.70;;;;;;;21.93;61.15;100952.19;112480;1204;22517;-60
2021/09/08 10:46:04;;;;;;;14.50;5.90;;;;;;;21.98;60.92;100948.16;112674;1204;22438;-61
2021/09/08 10:48:37;;;;;;;15.20;6.50;;;;;;;22.06;60.84;100948.69;112489;1206;22729;-61
2021/09/08 10:51:06;;;;;;;17.00;6.40;;;;;;;22.15;60.68;100947.41;112498;1205;22493;-61
2021/09/08 10:53:39;;;;;;;13.40;5.50;;;;;;;22.20;60.31;100937.26;112636;1204;24120;-61
2021/09/08 10:56:09;;;;;;;12.70;4.90;;;;;;;22.23;59.68;100941.33;112562;1205;25189;-61
2021/09/08 10:58:59;;;;;;;15.40;5.60;;;;;;;22.28;58.82;100936.48;112525;1205;24129;-61
2021/09/08 11:01:30;;;;;;;12.20;4.60;;;;;;;22.33;58.34;100931.83;112468;1205;24106;-60
2021/09/08 11:03:58;;;;;;;13.20;4.70;;;;;;;22.38;58.42;100933.19;112619;1204;22436;-60
2021/09/08 11:06:39;;;;;;;10.30;4.10;;;;;;;22.45;57.92;100928.36;112511;1203;26303;-62
2021/09/08 11:09:11;;;;;;;11.70;3.90;;;;;;;22.51;57.04;100926.91;112523;1205;24229;-61
2021/09/08 11:11:53;;;;;;;13.20;3.90;;;;;;;22.55;56.16;100917.19;112612;1203;22457;-61
2021/09/08 11:14:42;;;;;;;8.50;2.80;;;;;;;22.62;55.16;100920.56;112529;1205;25315;-60
2021/09/08 11:17:20;;;;;;;8.80;3.00;;;;;;;22.66;54.84;100917.10;112574;1204;22617;-64
2021/09/08 11:19:51;;;;;;;12.80;3.60;;;;;;;22.72;54.46;100914.77;112537;1208;22458;-60
2021/09/08 11:22:20;;;;;;;12.60;3.90;;;;;;;22.76;54.25;100915.83;112447;1205;25449;-60